Accueil
METAR-TAF:

METAR-TAF

Aéroports :

Metz-Nancy-Lorraine, France

Aéroport de Metz-Nancy-Lorraine

latitude: 48-59N, longitude: 006-15E, altitude: 264 m

Observation

Le bulletin a été fait il y a 20 minutes, à 01:30 UTC
Vent 11 kt de sud/sud-est
Température 13°C
Humidité 77%
Pression 1023 hPa
Visibilité 10 km ou plus
pas de nuages en-dessous de 1500 mètres et pas de cumulonimbus.

METAR: LFJL 170130Z AUTO 16011KT CAVOK 13/09 Q1023 NOSIG

Heure: 03:50 (01:50 UTC)

Prévision

Le bulletin a été fait il y a 2 heures et 50 minutes, à 23:00 UTC
Prévision valable du 17 à 00 UTC au 17 à 24 UTC
Vent 5 kt de sud/sud-est
Visibilité 10 km ou plus
pas de nuages en-dessous de 1500 mètres et pas de cumulonimbus.
Temporairement
du 17 à 21 UTC au 17 à 24 UTC
Vent 10 kt de est

TAF: LFJL 162300Z 1700/1724 16005KT CAVOK TEMPO 1721/1724 10010KT

Observations et prévisions météorologiques de plus de 4000 aéroports (messages METAR et TAF).

Les stations disponibles sont représentées par des disques jaunes et rouges sur la carte.

Passer la souris dessus pour voir le nom de la station.

Cliquer dessus pour voir les observations et prévisions météorologiques.

Pour changer de carte: cliquez sur les boutons verts avec une croix noire pour zoomer, sur le bouton vert avec un tiret pour effectuer un zoom arrière, ou sur les flèches vertes pour les cartes adjacentes.


METAR-TAF: